Samat Taykenov

チーフスカウト - Shakhter
5 12月 2027
日曜日
処理

性格

適応力 (9) 野心 (15) 物議 (10) 忠誠心 (2) プレッシャー耐性 (15) プロ意識 (4) スポーツマンシップ (1) 気質 (18)

プロフィール

指導スタイル 民主型
ライセンス 国内B級
決断力 9
人材管理 11
モチベーション 8
規律 10
仕事満足度
100%
疲労度
0%
役職 チーフスカウト
給与 12.2K 週給
契約 14.03.2030

パフォーマンス

態度 良い
トレーニング効果
30%
選手育成
15%
怪我予防
15%
戦術実行
50%

最近の出来事

補強会議に出席 7日前
補強会議に出席 14日前
補強会議に出席 21日前
補強会議に出席 28日前
補強会議に出席 35日前
補強会議に出席 42日前
補強会議に出席 49日前
補強会議に出席 56日前

監視中

172
選手 クラブ 状態 能力 自信 視察済み 最終確認 最新投票
Gonzalo Asis Almagro アクティブ 110 / 100 40% 2 02.10.2027 -
Vadim Pobudey Torpedo-BelAZ アクティブ 88 / 98 40% 1 02.10.2027 -
Matías Sosa Arsenal アクティブ 104 / 122 40% 1 28.09.2027 -
Francisco Maidana Gimnasia y Esgrima アクティブ 102 / 116 40% 1 28.09.2027 -
Gerónimo Tomasetti Temperley アクティブ 113 / 111 40% 3 27.09.2027 -
Léo Natel Ordabasy アクティブ 111 / 128 40% 2 27.09.2027 -
Yevhen Protasov Vitebsk アクティブ 92 / 93 40% 2 24.09.2027 -
Marco Campagnaro Maipú アクティブ 107 / 105 40% 1 24.09.2027 -
Federico Pérez Agropecuario Argentino アクティブ 123 / 106 40% 3 23.09.2027 -
Carlos Gugenheim Almirante Brown アクティブ 103 / 124 40% 1 23.09.2027 -
Fawaz Abdullahi Dinamo Minsk アクティブ 106 / 105 40% 2 22.09.2027 -
Däuren Jūmat Tobol アクティブ 115 / 112 40% 2 21.09.2027 -
Mariano Bracamonte Deportivo Riestra アクティブ 125 / 108 40% 2 18.09.2027 -
Tomás Díaz Grassano San Miguel アクティブ 114 / 102 40% 1 17.09.2027 -
Ezekiel Edidiong Enyimba アクティブ 77 / 79 40% 1 17.09.2027 -
Lucas Ríos Atlanta アクティブ 117 / 117 40% 2 15.09.2027 -
Johan Campaña Patriotas アクティブ 106 / 122 40% 2 15.09.2027 -
David Gallardo Gimnasia y Esgrima アクティブ 108 / 123 40% 1 12.09.2027 -
Doniyor Abdumannopov Andijon アクティブ 100 / 116 40% 1 11.09.2027 -
Marc Gual Kairat アクティブ 112 / 122 40% 2 10.09.2027 -
Jasur Tukhtasinov Obod アクティブ 99 / 102 40% 1 07.09.2027 -
Sergey Volkov Isloch アクティブ 90 / 100 40% 2 06.09.2027 -
Gabriel Obredor Deportivo Riestra アクティブ 112 / 102 40% 2 05.09.2027 -
Onyia Henry Bendel Insurance アクティブ 83 / 92 40% 1 05.09.2027 -
Zakhar Gitselev Lida アクティブ 95 / 87 40% 1 04.09.2027 -
Andrey Solovey Slavia Mozyr アクティブ 93 / 98 40% 1 30.08.2027 -
Marcus Vinicius BATE アクティブ 116 / 122 40% 1 30.08.2027 -
Carlos Cantillo Jaguares アクティブ 111 / 127 40% 2 29.08.2027 -
Islom Kenjaboyev Qizilqum アクティブ 116 / 116 40% 3 29.08.2027 -
Juan Salas Patronato アクティブ 103 / 122 40% 1 28.08.2027 -
Jean Pierre Rosso Liverpool Montevideo アクティブ 110 / 106 40% 2 27.08.2027 -
Milton Gerez Güemes アクティブ 109 / 99 40% 1 27.08.2027 -
Giorgi Zaria Aktobe アクティブ 113 / 112 40% 2 25.08.2027 -
Nikita Korzun Torpedo-BelAZ アクティブ 105 / 96 40% 1 24.08.2027 -
Nurjahon Muzaffarov Mashal アクティブ 90 / 100 40% 1 24.08.2027 -
Timur Pukhov Baranovichi アクティブ 95 / 93 40% 2 20.08.2027 -
Aminu Mohammed Kano Pillars アクティブ 91 / 100 40% 1 20.08.2027 -
Nurdoolot Stalbekov Isloch アクティブ 94 / 85 40% 2 18.08.2027 -
Francisco Funes Los Andes アクティブ 97 / 103 40% 1 18.08.2027 -
Axel Guerra Chacarita Juniors アクティブ 123 / 118 40% 2 16.08.2027 -
Evgeniy Yudchits Isloch アクティブ 88 / 93 40% 2 12.08.2027 -
Ahmad Lamido Wikki Tourists アクティブ 95 / 82 40% 1 12.08.2027 -
Ilya Rutskiy Torpedo-BelAZ アクティブ 91 / 106 40% 1 11.08.2027 -
Arman Keńesov Aktobe アクティブ 97 / 91 40% 1 10.08.2027 -
Santiago Corbo Miramar Misiones アクティブ 111 / 104 40% 1 10.08.2027 -
Sean Fusire Sheffield Wednesday アクティブ 99 / 130 40% 1 09.08.2027 -
Stéphane Diarra Alverca アクティブ 123 / 104 40% 1 09.08.2027 -
Nikola Burić Astana アクティブ 107 / 105 40% 1 07.08.2027 -
Kallum Cesay Salford City アクティブ 107 / 123 40% 3 06.08.2027 -
Dion Pereira Crawley Town アクティブ 79 / 77 40% 1 05.08.2027 -
Akin Odimayo Crawley Town アクティブ 90 / 101 40% 1 04.08.2027 -
Tiago Mamede Portimonense アクティブ 101 / 103 40% 1 04.08.2027 -
Nnamdi Ahanonu Astana アクティブ 96 / 97 40% 1 02.08.2027 -
Ifeanyi Assurance Rangers International アクティブ 81 / 80 40% 1 01.08.2027 -
Salomon Chigoziem Nasarawa United アクティブ 79 / 74 40% 1 31.07.2027 -
Luis Guerra Tobol アクティブ 101 / 105 40% 1 31.07.2027 -
Seb Palmer-Houlden Gillingham アクティブ 95 / 85 40% 1 28.07.2027 -
Assane Ndiaye Cultural Leonesa アクティブ 103 / 103 40% 1 25.07.2027 -
Alfred Mazurich Lida アクティブ 84 / 100 40% 1 23.07.2027 -
Kirill Kaplenko BATE アクティブ 109 / 99 40% 1 19.07.2027 -
Ljupce Doriev BATE アクティブ 113 / 115 40% 1 18.07.2027 -
Claudio Messaggi Ospitaletto アクティブ 107 / 114 40% 1 16.07.2027 -
Alexandr Nadolskiy Yenisey アクティブ 96 / 100 40% 2 15.07.2027 -
Aaron Drinan Swindon Town アクティブ 122 / 120 40% 2 15.07.2027 -
Artem Makarchuk Sochi アクティブ 113 / 117 40% 2 13.07.2027 -
Razhab Magomedov Dinamo Makhachkala アクティブ 115 / 116 40% 4 13.07.2027 -
Artem Simonyan Rotor アクティブ 104 / 108 40% 3 12.07.2027 -
Andrey Mazurin Yenisey アクティブ 107 / 97 40% 5 12.07.2027 -
Andrey Nikitin Neftekhimik アクティブ 88 / 103 40% 9 10.07.2027 -
Stepan Oganesyan Fakel アクティブ 102 / 98 40% 4 10.07.2027 -
Alexandr Saplinov Volga アクティブ 95 / 92 40% 3 09.07.2027 -
Maxim Kuzmin Arsenal Tula アクティブ 116 / 113 40% 4 08.07.2027 -
Léo Cordeiro Ural アクティブ 104 / 102 40% 3 05.07.2027 -
Igor Gorbunov Arsenal Tula アクティブ 97 / 97 40% 2 05.07.2027 -
Daniil Gurchenko Spartak Tambov アクティブ 93 / 105 40% 5 03.07.2027 -
Nikolay Boyarkin Salyut アクティブ 83 / 97 40% 1 03.07.2027 -
Stefan Lončar Akron アクティブ 110 / 113 40% 3 29.06.2027 -
Miroslav Lobantsev Okzhetpes 却下 82 / 105 58% 1 28.06.2027 -
Dmitry Tsypchenko Torpedo Moscow アクティブ 99 / 113 40% 5 27.06.2027 -
Ismael Akhmat Grozny アクティブ 118 / 121 40% 2 25.06.2027 -
Igor Shkolik SKA Khabarovsk アクティブ 101 / 92 40% 5 25.06.2027 -
Serikzhan Muzhikov Zhetysu 却下 113 / 98 58% 1 14.06.2027 -
Nuri Abdokov Fakel アクティブ 105 / 100 40% 4 11.06.2027 -
Ilja Safronov Rotor アクティブ 108 / 92 40% 5 11.06.2027 -
Alan Tsaraev Arsenal Tula 却下 112 / 111 40% 3 10.06.2027 -
Konstantin Maradishvili Akron アクティブ 103 / 97 40% 2 09.06.2027 -
Rhys Chadwick Burton Albion アクティブ 91 / 103 40% 1 09.06.2027 -
Krasian Kolev Chernomorets アクティブ 100 / 103 40% 1 04.06.2027 -
Eduard Valiakhmetov Neftekhimik アクティブ 107 / 95 40% 2 03.06.2027 -
Joe Snowdon Swindon Town アクティブ 79 / 87 40% 1 03.06.2027 -
Samson Tovide Colchester United アクティブ 103 / 105 40% 1 27.05.2027 -
Danila Shilov Dinamo Stavropol 却下 100 / 104 40% 5 26.05.2027 -
Konstantin Shiltsov Baltika 却下 107 / 101 40% 5 26.05.2027 -
Vladislav Sarveli Nizhniy Novgorod アクティブ 100 / 101 40% 2 23.05.2027 -
Nikolay Titkov Baltika アクティブ 105 / 102 40% 3 22.05.2027 -
Jonathan Okoronkwo Torpedo Moscow アクティブ 113 / 115 40% 2 22.05.2027 -
Miloš Brnović Arsenal Tula アクティブ 110 / 121 40% 4 20.05.2027 -
Nikolay Giorgobiani Fakel アクティブ 110 / 113 40% 4 16.05.2027 -
Garrik Levin Chelyabinsk アクティブ 101 / 94 40% 6 16.05.2027 -
Fanil Sungatulin Ural アクティブ 108 / 109 40% 3 15.05.2027 -
David Kokoev Yenisey アクティブ 95 / 108 40% 3 13.05.2027 -
Ramazan Gadjimuradov Chelyabinsk アクティブ 114 / 108 40% 8 12.05.2027 -
Daniil Penchikov Arsenal Tula アクティブ 101 / 106 40% 1 12.05.2027 -
Danila Vedernikov Orenburg アクティブ 93 / 99 40% 2 08.05.2027 -
Rifat Zhemaletdinov Ural アクティブ 126 / 122 40% 7 30.04.2027 -
Ruslan Cherviakov Spartak Kostroma アクティブ 97 / 97 40% 2 30.04.2027 -
Leon Sabua Rotor アクティブ 106 / 90 40% 3 26.04.2027 -
Lewis Richards Crawley Town アクティブ 97 / 114 40% 1 23.04.2027 -
Ilja Berkovskiy Torpedo Moscow アクティブ 99 / 104 40% 4 22.04.2027 -
Ilja Ishkov Ural アクティブ 104 / 111 40% 3 19.04.2027 -
Georgy Melkadze Akhmat Grozny アクティブ 112 / 111 40% 2 19.04.2027 -
Kamran Aliev SKA Khabarovsk アクティブ 110 / 97 40% 3 12.04.2027 -
Yury Zheleznov Akron アクティブ 110 / 107 40% 1 10.04.2027 -
Soltmurad Bakaev Rodina アクティブ 105 / 107 40% 2 05.04.2027 -
Danila Yanov Shinnik アクティブ 100 / 98 40% 2 03.04.2027 -
Leon Musaev Neftekhimik アクティブ 92 / 104 40% 2 31.03.2027 -
Oleg Krasilnichenko Volga アクティブ 88 / 82 40% 1 30.03.2027 -
Danil Lipovoy Ufa アクティブ 96 / 97 40% 1 26.03.2027 -
Migran Ageyan Ufa アクティブ 86 / 84 40% 1 25.03.2027 -
Yomar Rocha Akron アクティブ 104 / 110 40% 2 22.03.2027 -
Gleb Shevchenko Torpedo Moscow アクティブ 112 / 98 40% 2 21.03.2027 -
Maxim Khramtsov Rotor アクティブ 89 / 85 40% 2 19.03.2027 -
Daniil Kornyushin Shinnik 却下 110 / 103 40% 2 19.03.2027 -
Artur Murza Volga アクティブ 85 / 81 40% 2 16.03.2027 -
Anton Antonov Chernomorets アクティブ 85 / 98 40% 1 10.03.2027 -
Ruslan Baitukov Chelyabinsk アクティブ 105 / 109 40% 2 09.03.2027 -
Sebastián Arce Rodina アクティブ 118 / 113 40% 3 08.02.2027 -
Alexandr Ektov Nizhniy Novgorod アクティブ 119 / 108 40% 2 08.02.2027 -
Dmitry Yashin Atyrau 却下 90 / 87 58% 1 08.02.2027 -
Irakly Manelov Baltika アクティブ 108 / 123 40% 3 03.02.2027 -
Ilja Vakhania Krasnodar アクティブ 128 / 119 40% 1 03.02.2027 -
Temirkan Sundukov Dinamo Makhachkala アクティブ 117 / 113 40% 2 24.01.2027 -
Houssem Mrezigue Dinamo Makhachkala アクティブ 110 / 125 40% 2 24.01.2027 -
Daniil Agureev Amkar アクティブ 82 / 80 40% 1 16.01.2027 -
Eldar Ćivić Baltika 却下 129 / 106 40% 2 09.01.2027 -
Pedro Zenit アクティブ 140 / 134 40% 2 02.01.2027 -
Sven Karič Nizhniy Novgorod アクティブ 119 / 122 40% 1 01.01.2027 -
Vladislav Kamilov Ufa アクティブ 107 / 95 40% 1 30.12.2026 -
Vasily Cherov Ufa アクティブ 101 / 96 40% 2 29.12.2026 -
Fahd Moufi Baltika アクティブ 108 / 115 40% 1 27.12.2026 -
Iker Pozo Rodina アクティブ 122 / 105 40% 2 26.12.2026 -
Alexandr Yushin Torpedo Moscow アクティブ 100 / 112 40% 2 10.12.2026 -
Mohammad Javad Hosseinnejad Dinamo Makhachkala アクティブ 108 / 120 40% 1 03.12.2026 -
Alexandr Rudenko Lokomotiv Moscow アクティブ 128 / 119 40% 1 02.12.2026 -
Kirill Schetinin Akhmat Grozny アクティブ 118 / 107 40% 1 01.12.2026 -
Alexandr Bem Tyumen アクティブ 90 / 100 40% 2 26.11.2026 -
Pavel Kotov Veles アクティブ 94 / 85 40% 1 22.11.2026 -
Dmitry Skopintsev Dinamo Moscow アクティブ 112 / 114 40% 2 19.11.2026 -
Maxime Sivis Orenburg アクティブ 127 / 114 40% 2 18.11.2026 -
Chingiz Magomadov Mashuk アクティブ 96 / 98 40% 1 14.11.2026 -
David Karaev KAMAZ アクティブ 99 / 93 40% 1 12.11.2026 -
Mingiyan Beveev Baltika アクティブ 109 / 102 40% 1 12.11.2026 -
Rassambek Akhmatov Ural アクティブ 107 / 111 40% 1 03.11.2026 -
Nikita Krivtsov Krasnodar アクティブ 138 / 127 40% 1 31.10.2026 -
Sergey Babkin Lokomotiv Moscow アクティブ 113 / 117 40% 1 30.10.2026 -
Bashar Resan Pakhtakor アクティブ 127 / 128 40% 1 29.10.2026 -
Aleksandar Boljević Sogdiana アクティブ 124 / 103 40% 1 25.10.2026 -
Nikolay Rasskazov Krylya Sovetov アクティブ 122 / 104 40% 1 25.10.2026 -
Vyacheslav Grulev Nizhniy Novgorod アクティブ 107 / 124 40% 1 21.10.2026 -
Jamshid Boltaboev Bunyodkor アクティブ 96 / 106 40% 1 18.10.2026 -
Murodbek Rahmatov Nasaf アクティブ 110 / 113 40% 1 18.10.2026 -
Roman Paparyga Qizilqum アクティブ 97 / 104 40% 1 14.10.2026 -
Xurshid G'iyosov Neftchi アクティブ 114 / 119 40% 1 14.10.2026 -
Dmitry Pletnev Bunyodkor アクティブ 90 / 99 40% 1 13.10.2026 -
Sherzod Nasrullayev Pakhtakor アクティブ 109 / 112 40% 1 13.10.2026 -
Jasur Yaxshiboyev Lokomotiv アクティブ 111 / 113 40% 1 12.10.2026 -
Dilshodbek Ahmadaliyev AGMK アクティブ 97 / 117 40% 1 08.10.2026 -
Guljigit Alykulov Dinamo Minsk アクティブ 104 / 91 40% 1 08.10.2026 -
Alisher Odilov Neftchi アクティブ 115 / 106 40% 1 07.10.2026 -
Javohir Sidiqov Kokand 1912 アクティブ 109 / 93 40% 1 06.10.2026 -
Nauryzbek Zhagorov Tobol アクティブ 103 / 103 58% 1 03.08.2026 -
Dostonbek Hamdamov Pakhtakor アクティブ 121 / 110 40% 1 03.08.2026 -